createdAt,value
2023-01-08T00:01:44.977Z,54.40
2023-01-08T00:04:11.463Z,54.89
2023-01-08T00:06:37.915Z,56.40
2023-01-08T00:09:04.410Z,55.54
2023-01-08T00:11:30.862Z,55.80
2023-01-08T00:13:57.250Z,55.63
2023-01-08T00:16:23.739Z,54.31
2023-01-08T00:18:50.220Z,55.67
2023-01-08T00:21:16.737Z,55.79
2023-01-08T00:23:43.210Z,56.46
2023-01-08T00:26:10.647Z,57.23
2023-01-08T00:28:38.267Z,55.54
2023-01-08T00:31:06.137Z,55.27
2023-01-08T00:33:33.078Z,57.08
2023-01-08T00:35:59.973Z,57.28
2023-01-08T00:38:27.721Z,56.91
2023-01-08T00:40:54.550Z,57.24
2023-01-08T00:43:21.197Z,57.48
2023-01-08T00:45:47.748Z,56.79
2023-01-08T00:48:14.204Z,56.61
2023-01-08T00:50:40.603Z,56.69
2023-01-08T00:53:07.013Z,56.68
2023-01-08T00:55:33.411Z,55.55
2023-01-08T00:57:59.832Z,54.43
2023-01-08T01:00:26.331Z,55.44
2023-01-08T01:02:52.744Z,57.33
2023-01-08T01:05:19.346Z,56.95
2023-01-08T01:07:46.279Z,56.87
2023-01-08T01:10:15.511Z,55.99
2023-01-08T01:12:42.370Z,55.26
2023-01-08T01:15:12.137Z,56.16
2023-01-08T01:17:39.716Z,55.93
2023-01-08T01:20:08.327Z,55.13
2023-01-08T01:22:34.987Z,54.96
2023-01-08T01:25:01.597Z,57.10
2023-01-08T01:27:28.123Z,55.27
2023-01-08T01:29:54.843Z,55.15
2023-01-08T01:32:21.280Z,55.17
2023-01-08T01:34:47.695Z,54.44
2023-01-08T01:37:15.592Z,55.55
2023-01-08T01:39:49.008Z,55.61
2023-01-08T01:42:36.477Z,54.95
2023-01-08T01:45:17.108Z,55.38
2023-01-08T01:47:47.617Z,56.03
2023-01-08T01:50:21.624Z,56.05
2023-01-08T01:53:26.464Z,55.97
2023-01-08T01:55:53.544Z,56.02
2023-01-08T01:58:26.082Z,56.44
2023-01-08T02:00:54.165Z,55.55
2023-01-08T02:03:24.604Z,56.64
2023-01-08T02:05:56.192Z,57.73
2023-01-08T02:08:40.109Z,56.94
2023-01-08T02:11:12.760Z,56.38
2023-01-08T02:13:45.435Z,56.53
2023-01-08T02:16:21.565Z,56.45
2023-01-08T02:18:53.170Z,56.20
2023-01-08T02:21:43.993Z,57.22
2023-01-08T02:24:23.840Z,57.34
2023-01-08T02:26:55.196Z,57.97
2023-01-08T02:29:26.029Z,56.62
2023-01-08T02:31:52.604Z,56.13
2023-01-08T02:34:19.019Z,55.17
2023-01-08T02:36:51.279Z,55.16
2023-01-08T02:39:49.152Z,55.50
2023-01-08T02:42:38.654Z,56.09
2023-01-08T02:45:23.854Z,56.76
2023-01-08T02:47:55.698Z,56.62
2023-01-08T02:50:22.172Z,56.53
2023-01-08T02:52:59.645Z,56.40
2023-01-08T02:55:28.262Z,57.48
2023-01-08T02:57:55.249Z,56.61
2023-01-08T03:00:22.862Z,57.15
2023-01-08T03:02:55.483Z,57.06
2023-01-08T03:05:27.898Z,56.11
2023-01-08T03:07:55.613Z,56.58
2023-01-08T03:10:26.038Z,57.51
2023-01-08T03:13:02.292Z,56.38
2023-01-08T03:15:35.234Z,55.87
2023-01-08T03:18:09.448Z,56.28
2023-01-08T03:20:37.960Z,59.45
2023-01-08T03:23:09.285Z,56.42
2023-01-08T03:25:39.952Z,57.67
2023-01-08T03:28:11.707Z,59.60
2023-01-08T03:30:41.646Z,56.87
2023-01-08T03:33:11.208Z,58.32
2023-01-08T03:35:41.468Z,57.23
2023-01-08T03:38:20.162Z,58.10
2023-01-08T03:40:52.585Z,57.99
2023-01-08T03:43:20.380Z,57.71
2023-01-08T03:45:53.733Z,57.08
2023-01-08T03:48:21.778Z,58.57
2023-01-08T03:50:49.228Z,58.85
2023-01-08T03:53:15.772Z,57.08
2023-01-08T03:55:42.649Z,57.57
2023-01-08T03:58:09.217Z,57.60
2023-01-08T04:00:35.809Z,58.62
2023-01-08T04:03:05.008Z,58.32
2023-01-08T04:05:32.195Z,58.28
2023-01-08T04:07:58.801Z,58.71
2023-01-08T04:10:25.954Z,58.49
2023-01-08T04:12:52.699Z,58.76
2023-01-08T04:15:20.537Z,58.42
2023-01-08T04:17:46.943Z,58.27
2023-01-08T04:20:13.402Z,58.29
2023-01-08T04:22:39.890Z,60.47
2023-01-08T04:25:06.966Z,60.51
2023-01-08T04:27:33.352Z,61.14
2023-01-08T04:29:59.829Z,58.84
2023-01-08T04:32:26.229Z,59.75
2023-01-08T04:34:52.641Z,60.54
2023-01-08T04:37:19.082Z,60.29
2023-01-08T04:39:45.538Z,58.84
2023-01-08T04:42:11.993Z,59.06
2023-01-08T04:44:38.483Z,61.86
2023-01-08T04:47:04.905Z,61.35
2023-01-08T04:49:31.301Z,59.41
2023-01-08T04:51:57.810Z,60.09
2023-01-08T04:54:24.336Z,58.69
2023-01-08T04:56:51.824Z,59.60
2023-01-08T04:59:18.389Z,59.04
2023-01-08T05:01:44.962Z,59.20
2023-01-08T05:04:11.686Z,62.24
2023-01-08T05:06:38.158Z,62.02
2023-01-08T05:09:04.581Z,60.67
2023-01-08T05:11:31.021Z,58.95
2023-01-08T05:13:57.993Z,58.18
2023-01-08T05:16:24.524Z,59.17
2023-01-08T05:18:51.160Z,59.40
2023-01-08T05:21:17.831Z,60.39
2023-01-08T05:23:47.084Z,60.05
2023-01-08T05:26:13.938Z,59.65
2023-01-08T05:28:40.474Z,58.82
2023-01-08T05:31:06.953Z,59.47
2023-01-08T05:33:33.446Z,59.60
2023-01-08T05:35:59.899Z,59.30
2023-01-08T05:38:26.319Z,59.08
2023-01-08T05:40:53.357Z,58.17
2023-01-08T05:43:20.013Z,58.81
2023-01-08T05:45:46.453Z,58.03
2023-01-08T05:48:12.874Z,58.58
2023-01-08T05:50:39.303Z,58.67
2023-01-08T05:53:07.612Z,59.11
2023-01-08T05:55:34.416Z,59.70
2023-01-08T05:58:02.680Z,59.44
2023-01-08T06:00:29.723Z,59.40
2023-01-08T06:02:56.178Z,58.78
2023-01-08T06:05:22.799Z,59.11
2023-01-08T06:07:49.312Z,59.76
2023-01-08T06:10:15.901Z,60.36
2023-01-08T06:12:42.538Z,59.53
2023-01-08T06:15:10.216Z,59.25
2023-01-08T06:17:36.666Z,59.10
2023-01-08T06:20:03.492Z,58.51
2023-01-08T06:22:30.181Z,58.63
2023-01-08T06:24:56.649Z,58.24
2023-01-08T06:27:23.076Z,58.05
2023-01-08T06:29:49.524Z,58.97
2023-01-08T06:32:16.106Z,59.54
2023-01-08T06:34:42.565Z,60.65
2023-01-08T06:37:08.995Z,61.79
2023-01-08T06:39:35.488Z,62.44
2023-01-08T06:42:02.071Z,62.43
2023-01-08T06:44:28.498Z,62.62
2023-01-08T06:46:55.004Z,64.17
2023-01-08T06:49:22.677Z,64.76
2023-01-08T06:51:49.096Z,64.67
2023-01-08T06:54:15.532Z,64.78
2023-01-08T06:56:53.055Z,65.07
2023-01-08T06:59:20.035Z,65.83
2023-01-08T07:01:46.626Z,65.92
2023-01-08T07:04:13.148Z,66.67
2023-01-08T07:06:39.648Z,66.43
2023-01-08T07:09:06.090Z,67.14
2023-01-08T07:11:33.489Z,67.42
2023-01-08T07:13:59.927Z,66.63
2023-01-08T07:16:26.404Z,67.06
2023-01-08T07:18:52.862Z,69.18
2023-01-08T07:21:20.967Z,67.16
2023-01-08T07:23:49.412Z,67.58
2023-01-08T07:26:15.917Z,67.03
2023-01-08T07:28:42.452Z,68.13
2023-01-08T07:31:09.709Z,67.11
2023-01-08T07:33:36.528Z,68.44
2023-01-08T07:36:02.992Z,69.27
2023-01-08T07:38:29.476Z,70.03
2023-01-08T07:40:57.951Z,69.65
2023-01-08T07:43:25.167Z,71.17
2023-01-08T07:45:51.759Z,71.61
2023-01-08T07:48:18.213Z,71.06
2023-01-08T07:50:45.068Z,70.92
2023-01-08T07:53:13.561Z,71.84
2023-01-08T07:55:40.047Z,72.64
2023-01-08T07:58:11.198Z,72.43
2023-01-08T08:00:38.337Z,74.43
2023-01-08T08:03:11.394Z,74.24
2023-01-08T08:05:38.355Z,73.56
2023-01-08T08:08:12.633Z,74.39
2023-01-08T08:10:40.552Z,75.54
2023-01-08T08:13:07.521Z,75.74
2023-01-08T08:15:35.352Z,74.97
2023-01-08T08:18:02.720Z,74.70
2023-01-08T08:20:29.407Z,74.90
2023-01-08T08:23:02.753Z,75.72
2023-01-08T08:25:29.549Z,74.63
2023-01-08T08:27:58.387Z,75.19
2023-01-08T08:30:26.673Z,76.01
2023-01-08T08:32:54.302Z,76.17
2023-01-08T08:35:22.136Z,75.11
2023-01-08T08:37:48.651Z,76.17
2023-01-08T08:40:15.099Z,75.29
2023-01-08T08:42:41.539Z,75.73
2023-01-08T08:45:08.448Z,75.43
2023-01-08T08:47:34.915Z,75.49
2023-01-08T08:50:02.197Z,76.05
2023-01-08T08:52:30.279Z,75.82
2023-01-08T08:54:56.713Z,75.20
2023-01-08T08:57:24.282Z,74.96
2023-01-08T08:59:50.696Z,74.70
2023-01-08T09:02:17.304Z,75.78
2023-01-08T09:04:43.800Z,76.10
2023-01-08T09:07:10.322Z,76.28
2023-01-08T09:09:36.697Z,75.84
2023-01-08T09:12:04.050Z,75.38
2023-01-08T09:14:30.442Z,75.68
2023-01-08T09:16:56.978Z,75.69
2023-01-08T09:19:23.525Z,75.08
2023-01-08T09:21:50.866Z,74.35
2023-01-08T09:24:17.407Z,74.38
2023-01-08T09:26:43.841Z,73.88
2023-01-08T09:29:10.408Z,74.27
2023-01-08T09:31:36.918Z,74.61
2023-01-08T09:34:03.530Z,74.57
2023-01-08T09:36:29.937Z,74.52
2023-01-08T09:38:56.378Z,74.71
2023-01-08T09:41:28.357Z,75.49
2023-01-08T09:43:58.063Z,75.59
2023-01-08T09:46:27.395Z,74.97
2023-01-08T09:48:58.626Z,74.15
2023-01-08T09:51:33.012Z,74.89
2023-01-08T09:53:59.696Z,74.53
2023-01-08T09:56:26.935Z,74.01
2023-01-08T09:58:55.589Z,73.89
2023-01-08T10:01:26.326Z,74.65
2023-01-08T10:03:58.248Z,72.87
2023-01-08T10:06:25.473Z,73.06
2023-01-08T10:08:52.612Z,74.57
2023-01-08T10:11:20.115Z,73.15
2023-01-08T10:13:52.616Z,73.87
2023-01-08T10:16:30.390Z,73.61
2023-01-08T10:18:58.585Z,73.79
2023-01-08T10:21:30.954Z,73.78
2023-01-08T10:23:57.405Z,72.01
2023-01-08T10:26:33.579Z,72.84
2023-01-08T10:29:14.105Z,72.67
2023-01-08T10:31:46.265Z,73.00
2023-01-08T10:34:23.999Z,74.23
2023-01-08T10:36:51.895Z,73.63
2023-01-08T10:39:25.611Z,72.38
2023-01-08T10:41:55.362Z,71.39
2023-01-08T10:44:23.501Z,70.78
2023-01-08T10:46:55.068Z,71.40
2023-01-08T10:49:33.376Z,69.57
2023-01-08T10:52:00.729Z,71.09
2023-01-08T10:54:39.095Z,69.56
2023-01-08T10:57:30.890Z,70.10
2023-01-08T10:59:57.374Z,70.92
2023-01-08T11:02:32.606Z,71.22
2023-01-08T11:04:59.377Z,71.89
2023-01-08T11:07:27.916Z,70.29
2023-01-08T11:09:54.974Z,68.50
2023-01-08T11:12:33.818Z,69.45
2023-01-08T11:15:00.687Z,68.89
2023-01-08T11:17:27.990Z,70.75
2023-01-08T11:19:55.871Z,69.38
2023-01-08T11:22:26.001Z,68.63
2023-01-08T11:24:54.105Z,69.12
2023-01-08T11:27:30.664Z,67.94
2023-01-08T11:30:21.019Z,71.02
2023-01-08T11:32:54.812Z,68.34
2023-01-08T11:35:26.074Z,68.28
2023-01-08T11:37:53.952Z,68.24
2023-01-08T11:40:31.994Z,68.01
2023-01-08T11:43:13.150Z,67.18
2023-01-08T11:46:03.973Z,69.48
2023-01-08T11:48:55.054Z,67.66
2023-01-08T11:52:21.390Z,67.23
2023-01-08T11:55:12.451Z,68.53
2023-01-08T11:57:52.129Z,67.09
2023-01-08T12:01:06.204Z,67.17
2023-01-08T12:04:20.033Z,67.00
2023-01-08T12:07:09.497Z,65.89
2023-01-08T12:09:41.996Z,66.46
2023-01-08T12:12:41.109Z,67.48
2023-01-08T12:15:33.123Z,66.32
2023-01-08T12:18:02.712Z,66.77
2023-01-08T12:20:46.280Z,66.23
2023-01-08T12:23:27.879Z,67.60
2023-01-08T12:25:57.373Z,65.80
2023-01-08T12:28:42.103Z,65.90
2023-01-08T12:31:18.710Z,66.38
2023-01-08T12:33:50.818Z,66.99
2023-01-08T12:36:37.063Z,67.89
2023-01-08T12:39:10.464Z,67.23
2023-01-08T12:41:39.776Z,65.47
2023-01-08T12:44:11.529Z,65.61
2023-01-08T12:46:43.277Z,64.97
2023-01-08T12:49:16.085Z,66.80
2023-01-08T12:51:51.325Z,65.29
2023-01-08T12:55:03.086Z,65.10
2023-01-08T12:57:38.828Z,65.00
2023-01-08T13:00:36.222Z,66.01
2023-01-08T13:03:06.309Z,65.61
2023-01-08T13:05:35.862Z,64.87
2023-01-08T13:08:28.472Z,65.34
2023-01-08T13:10:55.483Z,64.04
2023-01-08T13:13:36.561Z,63.79
2023-01-08T13:16:22.140Z,64.38
2023-01-08T13:19:21.915Z,64.75
2023-01-08T13:21:54.708Z,63.98
2023-01-08T13:24:30.165Z,63.18
2023-01-08T13:27:08.985Z,64.62
2023-01-08T13:29:42.598Z,65.79
2023-01-08T13:32:30.767Z,64.30
2023-01-08T13:35:15.660Z,63.60
2023-01-08T13:37:47.137Z,65.92
2023-01-08T13:40:35.072Z,63.60
2023-01-08T13:43:02.619Z,64.86
2023-01-08T13:45:30.675Z,68.05
2023-01-08T13:47:57.552Z,66.26
2023-01-08T13:50:28.644Z,66.48
2023-01-08T13:52:58.986Z,64.31
2023-01-08T13:55:30.464Z,67.68
2023-01-08T13:58:00.035Z,65.66
2023-01-08T14:00:31.217Z,62.89
2023-01-08T14:02:57.837Z,63.45
2023-01-08T14:05:34.594Z,62.82
2023-01-08T14:08:01.327Z,62.89
2023-01-08T14:10:30.995Z,63.69
2023-01-08T14:13:08.940Z,63.16
2023-01-08T14:15:35.914Z,64.57
2023-01-08T14:18:04.763Z,62.88
2023-01-08T14:20:38.200Z,62.71
2023-01-08T14:23:21.760Z,62.77
2023-01-08T14:25:49.569Z,63.57
2023-01-08T14:28:19.038Z,63.32
2023-01-08T14:30:54.369Z,63.17
2023-01-08T14:33:24.818Z,63.58
2023-01-08T14:35:51.858Z,63.83
2023-01-08T14:38:18.764Z,62.85
2023-01-08T14:40:57.695Z,62.89
2023-01-08T14:43:24.562Z,63.54
2023-01-08T14:45:53.561Z,63.90
2023-01-08T14:48:50.333Z,62.61
2023-01-08T14:51:23.748Z,61.77
2023-01-08T14:54:04.144Z,62.89
2023-01-08T14:56:33.852Z,62.87
2023-01-08T14:59:00.716Z,63.17
2023-01-08T15:01:29.962Z,63.31
2023-01-08T15:04:19.573Z,64.29
2023-01-08T15:06:46.567Z,62.49
2023-01-08T15:09:33.234Z,62.60
2023-01-08T15:12:07.664Z,62.29
2023-01-08T15:14:37.609Z,62.30
2023-01-08T15:17:19.571Z,61.74
2023-01-08T15:19:57.544Z,61.37
2023-01-08T15:22:31.450Z,61.78
2023-01-08T15:25:07.577Z,61.35
2023-01-08T15:27:36.948Z,60.65
2023-01-08T15:30:04.983Z,61.04
2023-01-08T15:32:39.098Z,61.67
2023-01-08T15:35:16.373Z,62.14
2023-01-08T15:37:43.080Z,61.02
2023-01-08T15:40:11.664Z,60.13
2023-01-08T15:42:56.789Z,60.72
2023-01-08T15:45:37.247Z,61.43
2023-01-08T15:48:04.641Z,60.61
2023-01-08T15:50:38.797Z,60.88
2023-01-08T15:53:24.666Z,61.34
2023-01-08T15:55:51.691Z,60.99
2023-01-08T15:58:18.851Z,61.90
2023-01-08T16:00:46.275Z,63.70
2023-01-08T16:03:13.876Z,64.66
2023-01-08T16:05:40.425Z,63.75
2023-01-08T16:08:07.071Z,65.24
2023-01-08T16:10:34.104Z,64.87
2023-01-08T16:13:01.628Z,65.10
2023-01-08T16:15:30.596Z,64.71
2023-01-08T16:17:58.068Z,65.30
2023-01-08T16:20:24.770Z,65.64
2023-01-08T16:22:51.396Z,64.41
2023-01-08T16:25:18.025Z,65.01
2023-01-08T16:27:44.439Z,65.51
2023-01-08T16:30:15.063Z,65.04
2023-01-08T16:32:42.096Z,64.41
2023-01-08T16:35:09.681Z,63.37
2023-01-08T16:37:36.488Z,64.37
2023-01-08T16:40:03.218Z,65.37
2023-01-08T16:42:29.659Z,65.96
2023-01-08T16:44:56.107Z,65.09
2023-01-08T16:47:22.609Z,64.66
2023-01-08T16:49:50.375Z,65.45
2023-01-08T16:52:17.550Z,64.70
2023-01-08T16:54:45.057Z,65.43
2023-01-08T16:57:11.483Z,65.29
2023-01-08T16:59:37.906Z,64.10
2023-01-08T17:02:04.439Z,64.23
2023-01-08T17:04:31.263Z,64.63
2023-01-08T17:06:58.076Z,63.06
2023-01-08T17:09:25.511Z,63.59
2023-01-08T17:11:51.974Z,64.70
2023-01-08T17:14:18.508Z,65.13
2023-01-08T17:16:45.478Z,64.91
2023-01-08T17:19:12.746Z,65.47
2023-01-08T17:21:40.313Z,65.02
2023-01-08T17:24:07.524Z,65.21
2023-01-08T17:26:34.205Z,65.96
2023-01-08T17:29:00.943Z,66.43
2023-01-08T17:31:27.472Z,66.37
2023-01-08T17:33:54.530Z,65.86
2023-01-08T17:36:24.249Z,65.79
2023-01-08T17:38:52.958Z,65.05
2023-01-08T17:41:39.123Z,64.64
2023-01-08T17:44:07.145Z,64.97
2023-01-08T17:46:42.377Z,64.27
2023-01-08T17:49:11.049Z,64.03
2023-01-08T17:51:38.605Z,63.98
2023-01-08T17:54:05.093Z,63.22
2023-01-08T17:56:31.506Z,63.03
2023-01-08T17:58:57.948Z,64.17
2023-01-08T18:01:24.558Z,63.31
2023-01-08T18:03:52.051Z,63.73
2023-01-08T18:06:18.486Z,64.83
2023-01-08T18:08:44.925Z,63.63
2023-01-08T18:11:11.391Z,63.34
2023-01-08T18:13:37.927Z,63.59
2023-01-08T18:16:06.776Z,64.90
2023-01-08T18:18:33.966Z,64.97
2023-01-08T18:21:00.522Z,63.37
2023-01-08T18:23:27.601Z,62.94
2023-01-08T18:25:54.018Z,62.61
2023-01-08T18:28:20.887Z,63.07
2023-01-08T18:30:47.372Z,63.51
2023-01-08T18:33:14.769Z,62.70
2023-01-08T18:35:41.741Z,62.81
2023-01-08T18:38:15.704Z,62.86
2023-01-08T18:40:45.721Z,62.14
2023-01-08T18:43:12.770Z,62.59
2023-01-08T18:45:39.534Z,62.60
2023-01-08T18:48:07.667Z,63.27
2023-01-08T18:50:34.121Z,62.83
2023-01-08T18:53:00.630Z,63.52
2023-01-08T18:55:27.029Z,64.34
2023-01-08T18:57:53.464Z,64.70
2023-01-08T19:00:20.748Z,65.51
2023-01-08T19:02:47.245Z,64.64
2023-01-08T19:05:13.685Z,64.78
2023-01-08T19:07:41.407Z,65.64
2023-01-08T19:10:12.680Z,66.33
2023-01-08T19:12:39.194Z,65.50
2023-01-08T19:15:06.671Z,65.62
2023-01-08T19:17:33.572Z,65.58
2023-01-08T19:19:59.989Z,66.27
2023-01-08T19:22:26.905Z,66.35
2023-01-08T19:24:54.773Z,66.37
2023-01-08T19:27:21.786Z,65.67
2023-01-08T19:29:48.534Z,65.55
2023-01-08T19:32:15.454Z,65.69
2023-01-08T19:34:41.903Z,66.13
2023-01-08T19:37:08.812Z,65.33
2023-01-08T19:39:35.653Z,66.48
2023-01-08T19:42:20.589Z,66.17
2023-01-08T19:44:47.013Z,66.10
2023-01-08T19:47:13.506Z,65.93
2023-01-08T19:49:42.837Z,65.40
2023-01-08T19:52:09.290Z,64.34
2023-01-08T19:54:37.709Z,65.12
2023-01-08T19:57:04.144Z,65.72
2023-01-08T19:59:30.558Z,66.23
2023-01-08T20:01:57.172Z,66.57
2023-01-08T20:04:23.691Z,65.08
2023-01-08T20:06:52.303Z,65.14
2023-01-08T20:09:19.052Z,64.61
2023-01-08T20:11:45.431Z,65.02
2023-01-08T20:14:11.906Z,64.80
2023-01-08T20:16:38.388Z,64.89
2023-01-08T20:19:05.274Z,65.46
2023-01-08T20:21:33.688Z,64.56
2023-01-08T20:24:05.026Z,64.09
2023-01-08T20:26:31.944Z,63.91
2023-01-08T20:28:59.074Z,65.66
2023-01-08T20:31:29.472Z,63.38
2023-01-08T20:33:57.233Z,64.13
2023-01-08T20:36:27.704Z,63.69
2023-01-08T20:38:57.820Z,62.62
2023-01-08T20:41:26.336Z,64.74
2023-01-08T20:43:56.072Z,64.27
2023-01-08T20:46:28.493Z,63.00
2023-01-08T20:49:03.394Z,63.14
2023-01-08T20:51:36.070Z,63.02
2023-01-08T20:54:05.127Z,62.88
2023-01-08T20:56:31.622Z,64.74
2023-01-08T20:58:58.201Z,63.53
2023-01-08T21:01:28.177Z,63.73
2023-01-08T21:03:57.067Z,64.38
2023-01-08T21:06:25.760Z,63.72
2023-01-08T21:08:56.421Z,63.47
2023-01-08T21:11:23.981Z,63.56
2023-01-08T21:13:51.131Z,63.24
2023-01-08T21:16:22.924Z,63.92
2023-01-08T21:18:50.546Z,64.95
2023-01-08T21:21:23.336Z,64.09
2023-01-08T21:23:50.522Z,64.31
2023-01-08T21:26:17.899Z,64.64
2023-01-08T21:28:46.595Z,64.11
2023-01-08T21:31:17.672Z,64.07
2023-01-08T21:33:48.567Z,64.25
2023-01-08T21:36:20.582Z,64.39
2023-01-08T21:38:47.674Z,65.24
2023-01-08T21:41:38.563Z,65.00
2023-01-08T21:44:28.829Z,65.78
2023-01-08T21:46:55.267Z,66.56
2023-01-08T21:49:21.671Z,66.62
2023-01-08T21:52:06.554Z,67.32
2023-01-08T21:54:32.989Z,66.58
2023-01-08T21:56:59.399Z,66.35
2023-01-08T21:59:25.825Z,65.69
2023-01-08T22:01:52.259Z,65.95
2023-01-08T22:04:18.709Z,66.73
2023-01-08T22:06:45.140Z,66.13
2023-01-08T22:09:11.657Z,66.21
2023-01-08T22:11:38.110Z,65.93
2023-01-08T22:14:04.608Z,66.17
2023-01-08T22:16:31.178Z,67.55
2023-01-08T22:18:57.893Z,67.87
2023-01-08T22:21:24.392Z,66.94
2023-01-08T22:23:51.074Z,68.35
2023-01-08T22:26:20.076Z,67.96
2023-01-08T22:28:46.624Z,68.00
2023-01-08T22:31:14.944Z,67.42
2023-01-08T22:33:41.485Z,66.18
2023-01-08T22:36:11.046Z,66.32
2023-01-08T22:38:37.961Z,66.64
2023-01-08T22:41:04.599Z,66.25
2023-01-08T22:43:31.067Z,65.43
2023-01-08T22:45:59.580Z,66.18
2023-01-08T22:48:27.567Z,66.59
2023-01-08T22:50:54.009Z,66.72
2023-01-08T22:53:20.664Z,65.49
2023-01-08T22:55:47.958Z,66.07
2023-01-08T22:58:17.613Z,66.36
2023-01-08T23:00:44.684Z,66.11
2023-01-08T23:03:11.754Z,66.64
2023-01-08T23:05:38.191Z,65.66
2023-01-08T23:08:05.113Z,66.46
2023-01-08T23:10:31.981Z,65.90
2023-01-08T23:12:58.751Z,65.44
2023-01-08T23:15:25.444Z,66.39
2023-01-08T23:17:52.822Z,66.58
2023-01-08T23:20:20.809Z,66.88
2023-01-08T23:22:48.515Z,65.72
2023-01-08T23:25:15.516Z,65.40
2023-01-08T23:27:42.100Z,64.82
2023-01-08T23:30:09.108Z,65.00
2023-01-08T23:32:35.513Z,66.15
2023-01-08T23:35:01.974Z,67.99
2023-01-08T23:37:28.381Z,66.42
2023-01-08T23:39:54.787Z,66.98
2023-01-08T23:42:21.232Z,67.05
2023-01-08T23:44:49.503Z,68.19
2023-01-08T23:47:15.947Z,68.53
2023-01-08T23:49:42.375Z,68.61
2023-01-08T23:52:08.821Z,68.74
2023-01-08T23:54:35.883Z,69.42
2023-01-08T23:57:02.374Z,68.83
2023-01-08T23:59:28.815Z,68.97
